sensor_id;sensor_type;location;lat;lon;timestamp;pressure;altitude;pressure_sealevel;temperature;humidity
41515;BME280;27247;48.020;16.720;2024-02-23T00:01:05;97924.41;;;9.41;80.23
41515;BME280;27247;48.020;16.720;2024-02-23T00:05:16;97936.31;;;9.38;80.02
41515;BME280;27247;48.020;16.720;2024-02-23T00:09:26;97921.91;;;9.46;79.25
41515;BME280;27247;48.020;16.720;2024-02-23T00:13:37;97936.50;;;9.43;79.67
41515;BME280;27247;48.020;16.720;2024-02-23T00:17:47;97934.44;;;9.45;78.92
41515;BME280;27247;48.020;16.720;2024-02-23T00:21:58;97937.91;;;9.46;79.11
41515;BME280;27247;48.020;16.720;2024-02-23T00:26:09;97926.44;;;9.45;78.60
41515;BME280;27247;48.020;16.720;2024-02-23T00:30:19;97926.78;;;9.55;78.10
41515;BME280;27247;48.020;16.720;2024-02-23T00:34:30;97932.50;;;9.59;77.48
41515;BME280;27247;48.020;16.720;2024-02-23T00:38:42;97929.13;;;9.70;77.52
41515;BME280;27247;48.020;16.720;2024-02-23T00:42:52;97930.38;;;9.68;77.30
41515;BME280;27247;48.020;16.720;2024-02-23T00:47:03;97931.41;;;9.67;78.16
41515;BME280;27247;48.020;16.720;2024-02-23T00:51:14;97930.81;;;9.65;77.87
41515;BME280;27247;48.020;16.720;2024-02-23T00:55:24;97935.50;;;9.69;77.86
41515;BME280;27247;48.020;16.720;2024-02-23T00:59:36;97926.66;;;9.69;78.34
41515;BME280;27247;48.020;16.720;2024-02-23T01:03:47;97918.66;;;9.69;77.83
41515;BME280;27247;48.020;16.720;2024-02-23T01:07:57;97923.84;;;9.64;78.04
41515;BME280;27247;48.020;16.720;2024-02-23T01:12:07;97920.31;;;9.70;77.49
41515;BME280;27247;48.020;16.720;2024-02-23T01:16:18;97911.28;;;9.71;77.11
41515;BME280;27247;48.020;16.720;2024-02-23T01:20:29;97912.25;;;9.76;77.49
41515;BME280;27247;48.020;16.720;2024-02-23T01:24:39;97903.06;;;9.72;78.85
41515;BME280;27247;48.020;16.720;2024-02-23T01:28:49;97913.94;;;9.71;79.92
41515;BME280;27247;48.020;16.720;2024-02-23T01:33:00;97902.06;;;9.67;80.82
41515;BME280;27247;48.020;16.720;2024-02-23T01:37:10;97910.38;;;9.52;80.78
41515;BME280;27247;48.020;16.720;2024-02-23T01:41:21;97918.22;;;9.47;81.21
41515;BME280;27247;48.020;16.720;2024-02-23T01:45:32;97919.47;;;9.44;80.54
41515;BME280;27247;48.020;16.720;2024-02-23T01:49:44;97912.66;;;9.48;78.65
41515;BME280;27247;48.020;16.720;2024-02-23T01:53:55;97909.78;;;9.50;79.38
41515;BME280;27247;48.020;16.720;2024-02-23T01:58:05;97897.72;;;9.47;79.05
41515;BME280;27247;48.020;16.720;2024-02-23T02:02:16;97916.75;;;9.51;79.64
41515;BME280;27247;48.020;16.720;2024-02-23T02:06:26;97918.22;;;9.47;79.80
41515;BME280;27247;48.020;16.720;2024-02-23T02:10:37;97913.09;;;9.45;79.44
41515;BME280;27247;48.020;16.720;2024-02-23T02:14:47;97903.25;;;9.46;78.64
41515;BME280;27247;48.020;16.720;2024-02-23T02:18:57;97908.97;;;9.49;78.76
41515;BME280;27247;48.020;16.720;2024-02-23T02:23:08;97919.00;;;9.54;78.87
41515;BME280;27247;48.020;16.720;2024-02-23T02:27:19;97921.00;;;9.58;78.56
41515;BME280;27247;48.020;16.720;2024-02-23T02:31:29;97929.44;;;9.55;78.82
41515;BME280;27247;48.020;16.720;2024-02-23T02:35:39;97931.25;;;9.62;77.27
41515;BME280;27247;48.020;16.720;2024-02-23T02:39:49;97926.50;;;9.64;76.76
41515;BME280;27247;48.020;16.720;2024-02-23T02:44:00;97933.81;;;9.75;76.29
41515;BME280;27247;48.020;16.720;2024-02-23T02:48:11;97934.03;;;9.73;76.09
41515;BME280;27247;48.020;16.720;2024-02-23T02:52:22;97940.38;;;9.72;76.22
41515;BME280;27247;48.020;16.720;2024-02-23T02:56:33;97944.47;;;9.75;76.37
41515;BME280;27247;48.020;16.720;2024-02-23T03:00:43;97948.34;;;9.79;76.70
41515;BME280;27247;48.020;16.720;2024-02-23T03:04:53;97951.88;;;9.73;77.56
41515;BME280;27247;48.020;16.720;2024-02-23T03:09:05;97954.16;;;9.69;78.09
41515;BME280;27247;48.020;16.720;2024-02-23T03:13:15;97968.13;;;9.65;79.20
41515;BME280;27247;48.020;16.720;2024-02-23T03:17:26;97955.63;;;9.65;79.48
41515;BME280;27247;48.020;16.720;2024-02-23T03:21:36;97968.84;;;9.53;80.43
41515;BME280;27247;48.020;16.720;2024-02-23T03:25:46;97975.44;;;9.44;81.27
41515;BME280;27247;48.020;16.720;2024-02-23T03:29:57;97984.66;;;9.48;81.67
41515;BME280;27247;48.020;16.720;2024-02-23T03:34:07;97985.28;;;9.44;81.58
41515;BME280;27247;48.020;16.720;2024-02-23T03:38:18;97991.66;;;9.43;82.29
41515;BME280;27247;48.020;16.720;2024-02-23T03:42:28;97997.41;;;9.40;83.39
41515;BME280;27247;48.020;16.720;2024-02-23T03:46:38;98001.94;;;9.39;83.62
41515;BME280;27247;48.020;16.720;2024-02-23T03:50:48;97999.28;;;9.33;84.21
41515;BME280;27247;48.020;16.720;2024-02-23T03:54:59;98005.66;;;9.25;85.12
41515;BME280;27247;48.020;16.720;2024-02-23T03:59:09;98016.56;;;9.17;86.10
41515;BME280;27247;48.020;16.720;2024-02-23T04:03:20;98026.38;;;9.23;86.16
41515;BME280;27247;48.020;16.720;2024-02-23T04:07:30;98041.38;;;9.17;87.15
41515;BME280;27247;48.020;16.720;2024-02-23T04:11:40;98057.31;;;9.24;87.40
41515;BME280;27247;48.020;16.720;2024-02-23T04:15:51;98075.34;;;9.28;86.94
41515;BME280;27247;48.020;16.720;2024-02-23T04:20:05;98100.56;;;9.26;88.66
41515;BME280;27247;48.020;16.720;2024-02-23T04:24:16;98111.91;;;9.08;92.25
41515;BME280;27247;48.020;16.720;2024-02-23T04:28:27;98134.03;;;9.09;95.66
41515;BME280;27247;48.020;16.720;2024-02-23T04:32:41;98149.81;;;9.04;99.52
41515;BME280;27247;48.020;16.720;2024-02-23T04:36:52;98185.69;;;9.08;100.00
41515;BME280;27247;48.020;16.720;2024-02-23T04:41:03;98212.13;;;8.89;100.00
41515;BME280;27247;48.020;16.720;2024-02-23T04:45:17;98215.19;;;8.67;100.00
41515;BME280;27247;48.020;16.720;2024-02-23T04:49:27;98210.25;;;8.57;100.00
41515;BME280;27247;48.020;16.720;2024-02-23T04:53:38;98214.75;;;8.50;100.00
41515;BME280;27247;48.020;16.720;2024-02-23T04:57:48;98216.38;;;8.44;100.00
41515;BME280;27247;48.020;16.720;2024-02-23T05:01:59;98211.88;;;8.38;100.00
41515;BME280;27247;48.020;16.720;2024-02-23T05:06:09;98216.78;;;8.35;100.00
41515;BME280;27247;48.020;16.720;2024-02-23T05:10:20;98226.13;;;8.30;100.00
41515;BME280;27247;48.020;16.720;2024-02-23T05:14:31;98227.53;;;8.26;100.00
41515;BME280;27247;48.020;16.720;2024-02-23T05:18:41;98241.28;;;8.30;100.00
41515;BME280;27247;48.020;16.720;2024-02-23T05:22:52;98242.28;;;8.22;100.00
41515;BME280;27247;48.020;16.720;2024-02-23T05:27:02;98244.91;;;8.16;100.00
41515;BME280;27247;48.020;16.720;2024-02-23T05:31:12;98239.19;;;8.19;100.00
41515;BME280;27247;48.020;16.720;2024-02-23T05:35:23;98246.16;;;8.20;100.00
41515;BME280;27247;48.020;16.720;2024-02-23T05:39:33;98254.53;;;8.17;100.00
41515;BME280;27247;48.020;16.720;2024-02-23T05:43:44;98262.09;;;8.13;100.00
41515;BME280;27247;48.020;16.720;2024-02-23T05:47:54;98265.78;;;8.12;100.00
41515;BME280;27247;48.020;16.720;2024-02-23T05:52:05;98272.09;;;8.11;100.00
41515;BME280;27247;48.020;16.720;2024-02-23T05:56:15;98287.25;;;8.11;100.00
41515;BME280;27247;48.020;16.720;2024-02-23T06:00:25;98303.56;;;8.01;100.00
41515;BME280;27247;48.020;16.720;2024-02-23T06:04:36;98306.66;;;8.05;100.00
41515;BME280;27247;48.020;16.720;2024-02-23T06:08:46;98319.72;;;7.99;100.00
41515;BME280;27247;48.020;16.720;2024-02-23T06:12:56;98321.72;;;7.91;100.00
41515;BME280;27247;48.020;16.720;2024-02-23T06:17:07;98330.91;;;7.88;100.00
41515;BME280;27247;48.020;16.720;2024-02-23T06:21:18;98334.63;;;7.94;100.00
41515;BME280;27247;48.020;16.720;2024-02-23T06:25:28;98346.06;;;7.88;100.00
41515;BME280;27247;48.020;16.720;2024-02-23T06:29:39;98352.41;;;7.87;100.00
41515;BME280;27247;48.020;16.720;2024-02-23T06:33:50;98362.59;;;7.83;100.00
41515;BME280;27247;48.020;16.720;2024-02-23T06:38:01;98351.34;;;7.81;100.00
41515;BME280;27247;48.020;16.720;2024-02-23T06:42:11;98370.72;;;7.75;100.00
41515;BME280;27247;48.020;16.720;2024-02-23T06:46:22;98382.19;;;7.76;100.00
41515;BME280;27247;48.020;16.720;2024-02-23T06:50:32;98383.88;;;7.83;100.00
41515;BME280;27247;48.020;16.720;2024-02-23T06:54:42;98399.81;;;7.83;100.00
41515;BME280;27247;48.020;16.720;2024-02-23T06:58:53;98412.53;;;7.88;100.00
41515;BME280;27247;48.020;16.720;2024-02-23T07:03:03;98414.56;;;7.86;100.00
41515;BME280;27247;48.020;16.720;2024-02-23T07:07:13;98416.66;;;7.90;100.00
41515;BME280;27247;48.020;16.720;2024-02-23T07:11:24;98422.16;;;7.89;100.00
41515;BME280;27247;48.020;16.720;2024-02-23T07:15:34;98418.94;;;7.93;100.00
41515;BME280;27247;48.020;16.720;2024-02-23T07:19:45;98428.94;;;7.91;100.00
41515;BME280;27247;48.020;16.720;2024-02-23T07:23:56;98440.63;;;7.69;100.00
41515;BME280;27247;48.020;16.720;2024-02-23T07:28:06;98444.53;;;7.73;100.00
41515;BME280;27247;48.020;16.720;2024-02-23T07:32:16;98445.56;;;7.72;100.00
41515;BME280;27247;48.020;16.720;2024-02-23T07:36:27;98454.69;;;7.63;100.00
41515;BME280;27247;48.020;16.720;2024-02-23T07:40:37;98474.31;;;7.62;100.00
41515;BME280;27247;48.020;16.720;2024-02-23T07:44:49;98467.53;;;7.59;100.00
41515;BME280;27247;48.020;16.720;2024-02-23T07:49:00;98481.97;;;7.72;100.00
41515;BME280;27247;48.020;16.720;2024-02-23T07:53:10;98472.59;;;7.76;100.00
41515;BME280;27247;48.020;16.720;2024-02-23T07:57:21;98479.94;;;7.74;100.00
41515;BME280;27247;48.020;16.720;2024-02-23T08:01:31;98488.47;;;7.69;100.00
41515;BME280;27247;48.020;16.720;2024-02-23T08:05:41;98483.59;;;7.73;100.00
41515;BME280;27247;48.020;16.720;2024-02-23T08:09:52;98481.00;;;7.79;100.00
41515;BME280;27247;48.020;16.720;2024-02-23T08:14:02;98488.22;;;7.85;100.00
41515;BME280;27247;48.020;16.720;2024-02-23T08:18:13;98488.41;;;7.84;100.00
41515;BME280;27247;48.020;16.720;2024-02-23T08:22:23;98491.75;;;7.92;100.00
41515;BME280;27247;48.020;16.720;2024-02-23T08:26:33;98491.88;;;8.06;100.00
41515;BME280;27247;48.020;16.720;2024-02-23T08:30:44;98496.56;;;8.04;100.00
41515;BME280;27247;48.020;16.720;2024-02-23T08:34:54;98499.25;;;8.10;100.00
41515;BME280;27247;48.020;16.720;2024-02-23T08:39:09;98503.00;;;8.16;100.00
41515;BME280;27247;48.020;16.720;2024-02-23T08:43:19;98510.63;;;8.25;100.00
41515;BME280;27247;48.020;16.720;2024-02-23T08:47:30;98518.03;;;8.30;100.00
41515;BME280;27247;48.020;16.720;2024-02-23T08:51:43;98517.84;;;8.31;100.00
41515;BME280;27247;48.020;16.720;2024-02-23T08:55:53;98523.91;;;8.40;100.00
41515;BME280;27247;48.020;16.720;2024-02-23T09:00:05;98512.72;;;8.51;100.00
41515;BME280;27247;48.020;16.720;2024-02-23T09:04:15;98529.94;;;8.55;100.00
41515;BME280;27247;48.020;16.720;2024-02-23T09:08:26;98530.78;;;8.56;100.00
41515;BME280;27247;48.020;16.720;2024-02-23T09:12:36;98537.78;;;8.63;100.00
41515;BME280;27247;48.020;16.720;2024-02-23T09:16:46;98541.09;;;8.66;100.00
41515;BME280;27247;48.020;16.720;2024-02-23T09:21:00;98552.75;;;8.64;100.00
41515;BME280;27247;48.020;16.720;2024-02-23T09:25:10;98544.88;;;8.84;100.00
41515;BME280;27247;48.020;16.720;2024-02-23T09:29:21;98546.78;;;8.97;100.00
41515;BME280;27247;48.020;16.720;2024-02-23T09:33:31;98545.56;;;9.00;100.00
41515;BME280;27247;48.020;16.720;2024-02-23T09:37:41;98554.41;;;9.00;100.00
41515;BME280;27247;48.020;16.720;2024-02-23T09:41:54;98545.81;;;9.05;100.00
41515;BME280;27247;48.020;16.720;2024-02-23T09:46:04;98550.53;;;9.09;100.00
41515;BME280;27247;48.020;16.720;2024-02-23T09:50:15;98554.03;;;9.10;100.00
41515;BME280;27247;48.020;16.720;2024-02-23T09:54:27;98564.56;;;9.24;100.00
41515;BME280;27247;48.020;16.720;2024-02-23T09:58:39;98558.63;;;9.29;100.00
41515;BME280;27247;48.020;16.720;2024-02-23T10:02:50;98550.22;;;9.32;100.00
41515;BME280;27247;48.020;16.720;2024-02-23T10:07:00;98544.56;;;9.42;100.00
41515;BME280;27247;48.020;16.720;2024-02-23T10:11:11;98546.81;;;9.45;100.00
41515;BME280;27247;48.020;16.720;2024-02-23T10:15:21;98537.59;;;9.47;100.00
41515;BME280;27247;48.020;16.720;2024-02-23T10:19:33;98538.25;;;9.56;100.00
41515;BME280;27247;48.020;16.720;2024-02-23T10:23:47;98526.72;;;9.42;100.00
41515;BME280;27247;48.020;16.720;2024-02-23T10:27:58;98520.78;;;9.47;100.00
41515;BME280;27247;48.020;16.720;2024-02-23T10:32:15;98511.56;;;9.56;100.00
41515;BME280;27247;48.020;16.720;2024-02-23T10:36:29;98517.94;;;9.55;100.00
41515;BME280;27247;48.020;16.720;2024-02-23T10:40:41;98513.84;;;9.59;100.00
41515;BME280;27247;48.020;16.720;2024-02-23T10:44:53;98524.72;;;9.64;100.00
41515;BME280;27247;48.020;16.720;2024-02-23T10:49:05;98508.09;;;9.69;100.00
41515;BME280;27247;48.020;16.720;2024-02-23T10:53:17;98495.19;;;9.79;100.00
41515;BME280;27247;48.020;16.720;2024-02-23T10:57:29;98491.69;;;9.72;100.00
41515;BME280;27247;48.020;16.720;2024-02-23T11:01:40;98490.28;;;9.76;100.00
41515;BME280;27247;48.020;16.720;2024-02-23T11:05:53;98492.72;;;9.64;100.00
41515;BME280;27247;48.020;16.720;2024-02-23T11:10:04;98484.50;;;9.59;100.00
41515;BME280;27247;48.020;16.720;2024-02-23T11:14:15;98478.75;;;9.55;100.00
41515;BME280;27247;48.020;16.720;2024-02-23T11:18:29;98472.00;;;9.73;100.00
41515;BME280;27247;48.020;16.720;2024-02-23T11:22:40;98470.34;;;9.72;100.00
41515;BME280;27247;48.020;16.720;2024-02-23T11:26:56;98477.53;;;9.71;100.00
41515;BME280;27247;48.020;16.720;2024-02-23T11:31:12;98480.00;;;9.73;100.00
41515;BME280;27247;48.020;16.720;2024-02-23T11:35:25;98485.97;;;9.75;100.00
41515;BME280;27247;48.020;16.720;2024-02-23T11:39:39;98486.38;;;9.72;100.00
41515;BME280;27247;48.020;16.720;2024-02-23T11:43:54;98496.63;;;9.75;100.00
41515;BME280;27247;48.020;16.720;2024-02-23T11:48:05;98496.81;;;9.67;100.00
41515;BME280;27247;48.020;16.720;2024-02-23T11:52:16;98499.06;;;9.56;100.00
41515;BME280;27247;48.020;16.720;2024-02-23T11:56:29;98477.94;;;9.62;100.00
41515;BME280;27247;48.020;16.720;2024-02-23T12:00:39;98475.66;;;9.52;100.00
41515;BME280;27247;48.020;16.720;2024-02-23T12:04:50;98479.34;;;9.44;100.00
41515;BME280;27247;48.020;16.720;2024-02-23T12:09:01;98467.84;;;9.44;100.00
41515;BME280;27247;48.020;16.720;2024-02-23T12:13:11;98469.28;;;9.40;100.00
41515;BME280;27247;48.020;16.720;2024-02-23T12:17:22;98446.47;;;9.31;100.00
41515;BME280;27247;48.020;16.720;2024-02-23T12:21:34;98440.31;;;9.30;100.00
41515;BME280;27247;48.020;16.720;2024-02-23T12:25:54;98436.63;;;9.31;100.00
41515;BME280;27247;48.020;16.720;2024-02-23T12:30:12;98448.28;;;9.23;100.00
41515;BME280;27247;48.020;16.720;2024-02-23T12:34:24;98440.09;;;9.18;100.00
41515;BME280;27247;48.020;16.720;2024-02-23T12:38:35;98431.88;;;9.20;100.00
41515;BME280;27247;48.020;16.720;2024-02-23T12:42:46;98414.84;;;9.14;100.00
41515;BME280;27247;48.020;16.720;2024-02-23T12:46:58;98406.66;;;9.09;100.00
41515;BME280;27247;48.020;16.720;2024-02-23T12:51:09;98417.09;;;9.11;100.00
41515;BME280;27247;48.020;16.720;2024-02-23T12:55:19;98414.00;;;9.01;100.00
41515;BME280;27247;48.020;16.720;2024-02-23T12:59:30;98398.00;;;9.01;100.00
41515;BME280;27247;48.020;16.720;2024-02-23T13:03:40;98399.88;;;9.07;100.00
41515;BME280;27247;48.020;16.720;2024-02-23T13:07:51;98393.94;;;9.05;100.00
41515;BME280;27247;48.020;16.720;2024-02-23T13:12:02;98394.34;;;9.08;100.00
41515;BME280;27247;48.020;16.720;2024-02-23T13:16:12;98389.63;;;9.04;100.00
41515;BME280;27247;48.020;16.720;2024-02-23T13:20:25;98382.88;;;9.14;100.00
41515;BME280;27247;48.020;16.720;2024-02-23T13:24:35;98376.75;;;9.20;100.00
41515;BME280;27247;48.020;16.720;2024-02-23T13:28:46;98367.72;;;9.35;100.00
41515;BME280;27247;48.020;16.720;2024-02-23T13:32:56;98370.03;;;9.38;100.00
41515;BME280;27247;48.020;16.720;2024-02-23T13:37:06;98371.06;;;9.43;100.00
41515;BME280;27247;48.020;16.720;2024-02-23T13:41:17;98371.06;;;9.43;99.86
41515;BME280;27247;48.020;16.720;2024-02-23T13:45:28;98363.66;;;9.52;98.51
41515;BME280;27247;48.020;16.720;2024-02-23T13:49:38;98349.31;;;9.46;100.00
41515;BME280;27247;48.020;16.720;2024-02-23T13:53:55;98336.56;;;9.28;100.00
41515;BME280;27247;48.020;16.720;2024-02-23T13:58:06;98334.91;;;9.21;100.00
41515;BME280;27247;48.020;16.720;2024-02-23T14:02:24;98328.34;;;9.23;100.00
41515;BME280;27247;48.020;16.720;2024-02-23T14:06:35;98318.72;;;9.16;100.00
41515;BME280;27247;48.020;16.720;2024-02-23T14:10:45;98311.75;;;9.08;100.00
41515;BME280;27247;48.020;16.720;2024-02-23T14:14:56;98308.25;;;9.08;100.00
41515;BME280;27247;48.020;16.720;2024-02-23T14:19:06;98303.75;;;9.15;100.00
41515;BME280;27247;48.020;16.720;2024-02-23T14:23:16;98302.94;;;9.08;100.00
41515;BME280;27247;48.020;16.720;2024-02-23T14:27:27;98309.28;;;9.20;100.00
41515;BME280;27247;48.020;16.720;2024-02-23T14:31:38;98311.75;;;9.28;100.00
41515;BME280;27247;48.020;16.720;2024-02-23T14:35:48;98309.50;;;9.32;100.00
41515;BME280;27247;48.020;16.720;2024-02-23T14:39:59;98301.75;;;9.37;100.00
41515;BME280;27247;48.020;16.720;2024-02-23T14:44:09;98301.75;;;9.37;100.00
41515;BME280;27247;48.020;16.720;2024-02-23T14:48:20;98286.16;;;9.40;100.00
41515;BME280;27247;48.020;16.720;2024-02-23T14:52:30;98280.19;;;9.38;100.00
41515;BME280;27247;48.020;16.720;2024-02-23T14:56:40;98285.75;;;9.37;100.00
41515;BME280;27247;48.020;16.720;2024-02-23T15:00:51;98282.66;;;9.40;100.00
41515;BME280;27247;48.020;16.720;2024-02-23T15:05:01;98270.94;;;9.34;100.00
41515;BME280;27247;48.020;16.720;2024-02-23T15:09:12;98276.28;;;9.34;100.00
41515;BME280;27247;48.020;16.720;2024-02-23T15:13:22;98269.94;;;9.22;100.00
41515;BME280;27247;48.020;16.720;2024-02-23T15:17:33;98274.84;;;9.25;100.00
41515;BME280;27247;48.020;16.720;2024-02-23T15:21:43;98268.09;;;9.16;100.00
41515;BME280;27247;48.020;16.720;2024-02-23T15:25:54;98259.28;;;9.15;100.00
41515;BME280;27247;48.020;16.720;2024-02-23T15:30:05;98244.72;;;9.18;99.38
41515;BME280;27247;48.020;16.720;2024-02-23T15:34:19;98253.53;;;9.18;98.84
41515;BME280;27247;48.020;16.720;2024-02-23T15:38:29;98256.41;;;9.23;98.26
41515;BME280;27247;48.020;16.720;2024-02-23T15:42:40;98237.53;;;9.25;98.13
41515;BME280;27247;48.020;16.720;2024-02-23T15:46:50;98236.09;;;9.22;97.96
41515;BME280;27247;48.020;16.720;2024-02-23T15:51:01;98238.75;;;9.22;98.61
41515;BME280;27247;48.020;16.720;2024-02-23T15:55:11;98245.53;;;9.25;97.32
41515;BME280;27247;48.020;16.720;2024-02-23T15:59:22;98244.72;;;9.31;96.96
41515;BME280;27247;48.020;16.720;2024-02-23T16:03:32;98246.75;;;9.29;96.00
41515;BME280;27247;48.020;16.720;2024-02-23T16:07:42;98245.94;;;9.35;96.51
41515;BME280;27247;48.020;16.720;2024-02-23T16:11:54;98234.03;;;9.31;95.41
41515;BME280;27247;48.020;16.720;2024-02-23T16:16:09;98238.56;;;9.44;94.47
41515;BME280;27247;48.020;16.720;2024-02-23T16:20:19;98233.44;;;9.42;94.81
41515;BME280;27247;48.020;16.720;2024-02-23T16:24:30;98232.81;;;9.53;93.21
41515;BME280;27247;48.020;16.720;2024-02-23T16:28:40;98232.19;;;9.51;93.22
41515;BME280;27247;48.020;16.720;2024-02-23T16:32:50;98237.91;;;9.62;92.41
41515;BME280;27247;48.020;16.720;2024-02-23T16:37:03;98220.06;;;9.62;92.35
41515;BME280;27247;48.020;16.720;2024-02-23T16:41:14;98211.44;;;9.67;92.32
41515;BME280;27247;48.020;16.720;2024-02-23T16:45:25;98217.59;;;9.67;92.89
41515;BME280;27247;48.020;16.720;2024-02-23T16:49:35;98210.41;;;9.68;92.26
41515;BME280;27247;48.020;16.720;2024-02-23T16:53:45;98217.19;;;9.64;92.28
41515;BME280;27247;48.020;16.720;2024-02-23T16:57:56;98213.91;;;9.68;92.61
41515;BME280;27247;48.020;16.720;2024-02-23T17:02:07;98201.38;;;9.69;92.55
41515;BME280;27247;48.020;16.720;2024-02-23T17:06:17;98206.28;;;9.78;91.28
41515;BME280;27247;48.020;16.720;2024-02-23T17:10:28;98193.75;;;9.79;91.74
41515;BME280;27247;48.020;16.720;2024-02-23T17:14:38;98201.34;;;9.82;91.18
41515;BME280;27247;48.020;16.720;2024-02-23T17:18:49;98183.88;;;9.86;90.67
41515;BME280;27247;48.020;16.720;2024-02-23T17:22:59;98181.41;;;9.84;91.45
41515;BME280;27247;48.020;16.720;2024-02-23T17:27:11;98190.44;;;9.83;92.05
41515;BME280;27247;48.020;16.720;2024-02-23T17:31:21;98183.09;;;9.79;92.03
41515;BME280;27247;48.020;16.720;2024-02-23T17:35:32;98177.97;;;9.77;91.39
41515;BME280;27247;48.020;16.720;2024-02-23T17:39:42;98181.03;;;9.81;91.35
41515;BME280;27247;48.020;16.720;2024-02-23T17:43:52;98171.38;;;9.80;91.97
41515;BME280;27247;48.020;16.720;2024-02-23T17:48:04;98170.78;;;9.78;91.76
41515;BME280;27247;48.020;16.720;2024-02-23T17:52:15;98169.75;;;9.79;92.50
41515;BME280;27247;48.020;16.720;2024-02-23T17:56:25;98165.69;;;9.70;92.88
41515;BME280;27247;48.020;16.720;2024-02-23T18:00:36;98159.72;;;9.68;92.70
41515;BME280;27247;48.020;16.720;2024-02-23T18:04:46;98145.38;;;9.69;93.15
41515;BME280;27247;48.020;16.720;2024-02-23T18:08:58;98145.59;;;9.67;92.67
41515;BME280;27247;48.020;16.720;2024-02-23T18:13:09;98135.31;;;9.71;93.70
41515;BME280;27247;48.020;16.720;2024-02-23T18:17:19;98129.19;;;9.64;93.76
41515;BME280;27247;48.020;16.720;2024-02-23T18:21:31;98125.06;;;9.68;92.51
41515;BME280;27247;48.020;16.720;2024-02-23T18:25:41;98139.25;;;9.62;92.20
41515;BME280;27247;48.020;16.720;2024-02-23T18:29:52;98144.75;;;9.67;92.62
41515;BME280;27247;48.020;16.720;2024-02-23T18:34:02;98137.38;;;9.69;92.53
41515;BME280;27247;48.020;16.720;2024-02-23T18:38:12;98142.06;;;9.73;90.86
41515;BME280;27247;48.020;16.720;2024-02-23T18:42:23;98139.59;;;9.78;90.80
41515;BME280;27247;48.020;16.720;2024-02-23T18:46:33;98131.38;;;9.80;90.29
41515;BME280;27247;48.020;16.720;2024-02-23T18:50:43;98139.38;;;9.80;89.89
41515;BME280;27247;48.020;16.720;2024-02-23T18:54:54;98136.66;;;9.86;89.19
41515;BME280;27247;48.020;16.720;2024-02-23T18:59:04;98123.28;;;9.93;88.04
41515;BME280;27247;48.020;16.720;2024-02-23T19:03:15;98129.88;;;9.90;88.18
41515;BME280;27247;48.020;16.720;2024-02-23T19:07:25;98123.09;;;9.95;88.14
41515;BME280;27247;48.020;16.720;2024-02-23T19:11:35;98126.78;;;9.93;87.91
41515;BME280;27247;48.020;16.720;2024-02-23T19:15:46;98133.00;;;9.81;88.62
41515;BME280;27247;48.020;16.720;2024-02-23T19:19:56;98133.13;;;9.99;86.50
41515;BME280;27247;48.020;16.720;2024-02-23T19:24:07;98139.88;;;10.02;86.37
41515;BME280;27247;48.020;16.720;2024-02-23T19:28:17;98141.91;;;10.06;85.89
41515;BME280;27247;48.020;16.720;2024-02-23T19:32:27;98138.84;;;10.03;85.96
41515;BME280;27247;48.020;16.720;2024-02-23T19:36:38;98146.41;;;10.06;85.69
41515;BME280;27247;48.020;16.720;2024-02-23T19:40:49;98140.66;;;10.09;85.03
41515;BME280;27247;48.020;16.720;2024-02-23T19:44:59;98116.78;;;10.20;84.44
41515;BME280;27247;48.020;16.720;2024-02-23T19:49:10;98115.13;;;10.19;84.10
41515;BME280;27247;48.020;16.720;2024-02-23T19:53:20;98112.22;;;10.28;83.38
41515;BME280;27247;48.020;16.720;2024-02-23T19:57:31;98118.00;;;10.24;83.31
41515;BME280;27247;48.020;16.720;2024-02-23T20:01:42;98114.72;;;10.22;82.70
41515;BME280;27247;48.020;16.720;2024-02-23T20:05:52;98130.88;;;10.34;81.89
41515;BME280;27247;48.020;16.720;2024-02-23T20:10:03;98130.09;;;10.27;82.74
41515;BME280;27247;48.020;16.720;2024-02-23T20:14:14;98123.06;;;10.33;82.32
41515;BME280;27247;48.020;16.720;2024-02-23T20:18:25;98120.41;;;10.33;81.85
41515;BME280;27247;48.020;16.720;2024-02-23T20:22:35;98118.38;;;10.28;82.09
41515;BME280;27247;48.020;16.720;2024-02-23T20:26:46;98121.31;;;10.20;82.71
41515;BME280;27247;48.020;16.720;2024-02-23T20:30:56;98121.31;;;10.20;82.32
41515;BME280;27247;48.020;16.720;2024-02-23T20:35:07;98134.84;;;10.25;81.81
41515;BME280;27247;48.020;16.720;2024-02-23T20:39:18;98130.31;;;10.26;81.25
41515;BME280;27247;48.020;16.720;2024-02-23T20:43:28;98151.25;;;10.29;81.65
41515;BME280;27247;48.020;16.720;2024-02-23T20:47:39;98128.84;;;10.30;81.07
41515;BME280;27247;48.020;16.720;2024-02-23T20:51:50;98132.16;;;10.25;81.59
41515;BME280;27247;48.020;16.720;2024-02-23T20:56:05;98132.34;;;10.30;81.80
41515;BME280;27247;48.020;16.720;2024-02-23T21:00:16;98134.84;;;10.25;81.87
41515;BME280;27247;48.020;16.720;2024-02-23T21:04:26;98135.25;;;10.22;81.98
41515;BME280;27247;48.020;16.720;2024-02-23T21:08:38;98131.34;;;10.18;81.80
41515;BME280;27247;48.020;16.720;2024-02-23T21:12:48;98144.31;;;10.21;81.35
41515;BME280;27247;48.020;16.720;2024-02-23T21:16:58;98152.94;;;10.16;81.64
41515;BME280;27247;48.020;16.720;2024-02-23T21:21:09;98164.47;;;10.10;83.46
41515;BME280;27247;48.020;16.720;2024-02-23T21:25:19;98192.47;;;9.95;82.48
41515;BME280;27247;48.020;16.720;2024-02-23T21:29:29;98205.97;;;9.09;82.88
41515;BME280;27247;48.020;16.720;2024-02-23T21:33:40;98235.91;;;8.17;85.96
41515;BME280;27247;48.020;16.720;2024-02-23T21:37:51;98229.13;;;8.08;87.83
41515;BME280;27247;48.020;16.720;2024-02-23T21:42:02;98226.94;;;7.77;88.11
41515;BME280;27247;48.020;16.720;2024-02-23T21:46:12;98241.94;;;7.50;87.31
41515;BME280;27247;48.020;16.720;2024-02-23T21:50:23;98259.47;;;7.44;88.16
41515;BME280;27247;48.020;16.720;2024-02-23T21:54:33;98265.09;;;7.07;89.61
41515;BME280;27247;48.020;16.720;2024-02-23T21:58:43;98277.75;;;6.83;90.19